Time;durP1;ratioP1;P1;durP2;ratioP2;P2;SDS_P1;SDS_P2;PMS_P1;PMS_P2;Temp;Humidity;BMP_temperature;BMP_pressure;BME280_temperature;BME280_humidity;BME280_pressure;Samples;Min_cycle;Max_cycle;Signal;HPM_P1;HPM_P2
2021/07/26 00:01:15;;;;;;;14.53;11.37;;;;;;;17.88;100.00;100236.69;4964178;28;20580;-73
2021/07/26 00:03:42;;;;;;;15.67;10.97;;;;;;;17.90;100.00;100239.22;4967513;28;20249;-73
2021/07/26 00:06:10;;;;;;;14.00;11.37;;;;;;;17.88;100.00;100231.41;4965113;28;20226;-73
2021/07/26 00:08:37;;;;;;;16.93;11.90;;;;;;;17.89;100.00;100232.28;4967304;28;20210;-73
2021/07/26 00:11:05;;;;;;;15.63;11.77;;;;;;;17.89;100.00;100227.00;4970948;28;20198;-73
2021/07/26 00:13:32;;;;;;;15.77;12.50;;;;;;;17.89;100.00;100225.22;4963735;28;20659;-73
2021/07/26 00:15:58;;;;;;;17.10;12.07;;;;;;;17.90;100.00;100233.97;4966228;28;20245;-73
2021/07/26 00:18:27;;;;;;;16.37;11.60;;;;;;;17.91;100.00;100233.03;4967902;28;20300;-73
2021/07/26 00:20:54;;;;;;;16.07;12.57;;;;;;;17.93;100.00;100228.50;4960111;28;20229;-72
2021/07/26 00:23:20;;;;;;;20.07;13.73;;;;;;;17.93;100.00;100229.34;4964842;28;20198;-73
2021/07/26 00:25:47;;;;;;;19.03;13.70;;;;;;;17.93;100.00;100223.22;4967221;28;20718;-73
2021/07/26 00:28:13;;;;;;;17.70;13.50;;;;;;;17.96;100.00;100217.75;4967268;28;20233;-73
2021/07/26 00:30:40;;;;;;;18.00;13.97;;;;;;;17.95;100.00;100208.97;4968072;28;20205;-73
2021/07/26 00:33:49;;;;;;;19.47;13.80;;;;;;;17.99;100.00;100207.00;4963756;28;20199;-74
2021/07/26 00:36:18;;;;;;;20.80;14.73;;;;;;;18.01;100.00;100204.25;4944256;28;20460;-73
2021/07/26 00:38:44;;;;;;;20.20;14.63;;;;;;;18.04;100.00;100199.63;4953284;28;20193;-73
2021/07/26 00:41:10;;;;;;;18.77;13.70;;;;;;;18.05;100.00;100198.69;4969162;28;20214;-74
2021/07/26 00:43:37;;;;;;;19.03;14.57;;;;;;;18.06;100.00;100194.25;4967578;28;20209;-73
2021/07/26 00:46:03;;;;;;;19.07;14.03;;;;;;;18.07;100.00;100193.34;4968134;28;20317;-73
2021/07/26 00:48:29;;;;;;;18.87;14.47;;;;;;;18.07;100.00;100191.53;4962284;28;20217;-73
2021/07/26 00:50:56;;;;;;;18.73;14.07;;;;;;;18.09;100.00;100192.28;4958914;28;20725;-73
2021/07/26 00:53:24;;;;;;;18.07;14.40;;;;;;;18.10;100.00;100193.13;4966620;28;20284;-73
2021/07/26 00:55:51;;;;;;;19.17;14.53;;;;;;;18.14;100.00;100192.00;4970955;28;20272;-73
2021/07/26 00:58:17;;;;;;;18.00;12.93;;;;;;;18.15;100.00;100198.94;4966203;28;20198;-73
2021/07/26 01:00:43;;;;;;;16.03;12.33;;;;;;;18.16;100.00;100198.84;4982193;28;20702;-74
2021/07/26 01:03:10;;;;;;;18.70;14.77;;;;;;;18.19;100.00;100192.53;4965438;28;20198;-73
2021/07/26 01:05:36;;;;;;;16.83;13.53;;;;;;;18.19;100.00;100202.22;4962172;28;20778;-73
2021/07/26 01:08:03;;;;;;;20.00;15.07;;;;;;;18.16;100.00;100201.47;4967978;28;20202;-73
2021/07/26 01:10:31;;;;;;;17.23;13.93;;;;;;;18.13;100.00;100200.84;4969305;28;20205;-73
2021/07/26 01:12:58;;;;;;;22.90;14.93;;;;;;;18.14;100.00;100186.72;4974089;28;20198;-73
2021/07/26 01:15:24;;;;;;;19.37;15.13;;;;;;;18.15;100.00;100191.03;4969295;28;20294;-73
2021/07/26 01:18:20;;;;;;;17.87;14.70;;;;;;;18.15;100.00;100189.25;4971219;28;20212;-73
2021/07/26 01:20:49;;;;;;;17.57;13.97;;;;;;;18.16;100.00;100192.72;4985474;28;20317;-73
2021/07/26 01:23:15;;;;;;;17.97;13.17;;;;;;;18.12;100.00;100194.72;4978921;28;20206;-73
2021/07/26 01:25:41;;;;;;;18.17;14.47;;;;;;;18.11;100.00;100200.94;4967853;28;20227;-73
2021/07/26 01:28:08;;;;;;;18.90;13.53;;;;;;;18.08;100.00;100206.44;4971170;28;20240;-73
2021/07/26 01:30:34;;;;;;;19.50;14.57;;;;;;;18.07;100.00;100201.25;4970091;28;20679;-73
2021/07/26 01:33:01;;;;;;;19.47;13.70;;;;;;;18.04;100.00;100209.34;4971292;28;20209;-73
2021/07/26 01:35:27;;;;;;;17.93;13.70;;;;;;;18.05;100.00;100208.41;4967319;28;20607;-73
2021/07/26 01:37:55;;;;;;;18.97;14.40;;;;;;;18.07;100.00;100217.91;4969512;28;20198;-74
2021/07/26 01:40:21;;;;;;;18.67;12.97;;;;;;;18.08;100.00;100216.97;4969849;28;20194;-73
2021/07/26 01:42:47;;;;;;;18.37;13.23;;;;;;;18.10;100.00;100215.09;4963454;28;20726;-73
2021/07/26 01:45:14;;;;;;;16.83;13.90;;;;;;;18.12;100.00;100223.75;4984359;28;20265;-73
2021/07/26 01:47:49;;;;;;;18.53;14.67;;;;;;;18.14;100.00;100223.66;4969244;28;20202;-73
2021/07/26 01:50:19;;;;;;;17.03;13.67;;;;;;;18.14;100.00;100226.28;4967922;28;20206;-73
2021/07/26 01:52:46;;;;;;;17.23;13.43;;;;;;;18.16;100.00;100232.31;4966159;28;20574;-73
2021/07/26 01:55:14;;;;;;;18.80;15.03;;;;;;;18.14;100.00;100232.41;4970928;28;20204;-74
2021/07/26 01:57:40;;;;;;;19.67;14.63;;;;;;;18.14;100.00;100235.03;4966869;28;20447;-73
2021/07/26 02:00:08;;;;;;;19.57;14.67;;;;;;;18.13;100.00;100230.72;4971203;28;20217;-73
2021/07/26 02:02:34;;;;;;;19.37;13.77;;;;;;;18.14;100.00;100226.28;4966898;28;20223;-73
2021/07/26 02:05:01;;;;;;;17.73;13.47;;;;;;;18.16;100.00;100229.66;4968563;28;20204;-74
2021/07/26 02:07:27;;;;;;;17.70;13.87;;;;;;;18.17;100.00;100231.38;4966625;28;20309;-74
2021/07/26 02:09:54;;;;;;;18.00;13.80;;;;;;;18.18;100.00;100233.03;4967841;28;20208;-74
2021/07/26 02:12:21;;;;;;;19.43;13.03;;;;;;;18.19;100.00;100226.84;4965471;28;20193;-74
2021/07/26 02:14:48;;;;;;;17.97;13.40;;;;;;;18.20;100.00;100225.03;4968976;28;20671;-74
2021/07/26 02:17:16;;;;;;;16.73;12.87;;;;;;;18.22;100.00;100228.41;4969274;28;20261;-74
2021/07/26 02:19:42;;;;;;;18.77;13.80;;;;;;;18.22;100.00;100226.63;4967616;28;20202;-73
2021/07/26 02:22:08;;;;;;;20.80;14.63;;;;;;;18.22;100.00;100218.69;4970475;28;20218;-74
2021/07/26 02:24:35;;;;;;;17.43;14.40;;;;;;;18.24;100.00;100221.25;4970939;28;20194;-74
2021/07/26 02:27:01;;;;;;;17.40;14.40;;;;;;;18.24;100.00;100219.47;4969272;28;20225;-74
2021/07/26 02:29:29;;;;;;;20.97;14.07;;;;;;;18.23;100.00;100224.84;4970974;28;20210;-74
2021/07/26 02:31:55;;;;;;;19.17;14.13;;;;;;;18.19;100.00;100229.47;4966971;28;20617;-74
2021/07/26 02:34:22;;;;;;;17.37;13.83;;;;;;;18.19;100.00;100232.13;4957142;28;20206;-74
2021/07/26 02:36:48;;;;;;;19.53;15.53;;;;;;;18.20;100.00;100232.94;4967041;28;20524;-74
2021/07/26 02:39:15;;;;;;;20.90;16.57;;;;;;;18.21;100.00;100235.50;4965048;28;20232;-74
2021/07/26 02:41:43;;;;;;;21.10;15.87;;;;;;;18.23;100.00;100240.69;4970320;28;20228;-74
2021/07/26 02:44:09;;;;;;;22.93;16.47;;;;;;;18.24;100.00;100235.31;4971150;28;20198;-74
2021/07/26 02:46:37;;;;;;;22.07;15.87;;;;;;;18.25;100.00;100233.50;4972221;28;20222;-74
2021/07/26 02:49:03;;;;;;;23.93;17.77;;;;;;;18.26;100.00;100238.69;4970346;28;20205;-74
2021/07/26 02:51:30;;;;;;;21.90;18.03;;;;;;;18.24;100.00;100227.41;4967260;28;20725;-73
2021/07/26 02:53:56;;;;;;;22.43;17.47;;;;;;;18.26;100.00;100235.22;4967543;28;20210;-73
2021/07/26 02:56:23;;;;;;;25.67;18.77;;;;;;;18.23;100.00;100236.25;4969487;28;20602;-73
2021/07/26 02:58:49;;;;;;;27.73;18.73;;;;;;;18.25;100.00;100225.59;4968228;28;20210;-73
2021/07/26 03:01:17;;;;;;;24.83;18.83;;;;;;;18.25;100.00;100233.50;4970591;28;20218;-73
2021/07/26 03:03:45;;;;;;;26.03;20.10;;;;;;;18.26;100.00;100227.28;4966748;28;20400;-73
2021/07/26 03:06:15;;;;;;;21.40;17.50;;;;;;;18.26;100.00;100219.38;4968795;28;20578;-73
2021/07/26 03:08:41;;;;;;;23.97;19.97;;;;;;;18.25;100.00;100226.44;4982831;28;20202;-73
2021/07/26 03:11:10;;;;;;;23.87;17.83;;;;;;;18.25;100.00;100223.78;4970179;28;20206;-73
2021/07/26 03:13:37;;;;;;;26.13;19.43;;;;;;;18.23;100.00;100223.06;4970988;28;20264;-73
2021/07/26 03:16:05;;;;;;;23.73;18.87;;;;;;;18.22;100.00;100229.25;4963741;28;20234;-73
2021/07/26 03:18:31;;;;;;;24.97;19.73;;;;;;;18.22;100.00;100231.91;4969295;28;20205;-73
2021/07/26 03:20:59;;;;;;;22.40;18.90;;;;;;;18.20;100.00;100231.16;4963719;28;20198;-74
2021/07/26 03:23:25;;;;;;;24.50;19.07;;;;;;;18.21;100.00;100235.50;4966984;28;20206;-74
2021/07/26 03:25:52;;;;;;;24.53;17.87;;;;;;;18.19;100.00;100224.19;4966302;28;20645;-74
2021/07/26 03:28:18;;;;;;;24.37;18.83;;;;;;;18.16;100.00;100224.38;4970564;28;20201;-74
2021/07/26 03:30:44;;;;;;;21.73;17.47;;;;;;;18.19;100.00;100228.59;4968896;28;20202;-74
2021/07/26 03:33:11;;;;;;;21.67;17.70;;;;;;;18.19;100.00;100226.84;4968463;28;20208;-74
2021/07/26 03:35:38;;;;;;;22.80;17.73;;;;;;;18.19;100.00;100218.06;4965213;28;20241;-74
2021/07/26 03:38:06;;;;;;;20.43;16.67;;;;;;;18.21;100.00;100219.66;4965088;28;20206;-75
2021/07/26 03:40:33;;;;;;;21.97;17.20;;;;;;;18.23;100.00;100217.78;4970591;28;20206;-74
2021/07/26 03:43:01;;;;;;;23.53;18.23;;;;;;;18.23;100.00;100216.94;4970824;28;20226;-75
2021/07/26 03:45:28;;;;;;;24.43;18.50;;;;;;;18.23;100.00;100227.50;4967713;28;20292;-74
2021/07/26 03:47:56;;;;;;;22.40;18.17;;;;;;;18.19;100.00;100226.84;4970231;28;20679;-74
2021/07/26 03:50:23;;;;;;;22.37;17.77;;;;;;;18.19;100.00;100228.59;4957615;28;20202;-75
2021/07/26 03:52:51;;;;;;;22.27;16.97;;;;;;;18.18;100.00;100235.69;4969333;28;20222;-75
2021/07/26 03:55:21;;;;;;;23.17;17.20;;;;;;;18.19;100.00;100233.88;4963071;28;20214;-73
2021/07/26 03:57:48;;;;;;;24.10;19.50;;;;;;;18.18;100.00;100235.69;4967265;28;20204;-75
2021/07/26 04:00:16;;;;;;;26.70;18.73;;;;;;;18.18;100.00;100240.97;4966190;28;20216;-73
2021/07/26 04:02:43;;;;;;;22.93;18.50;;;;;;;18.17;100.00;100242.75;4957889;28;20218;-75
2021/07/26 04:05:18;;;;;;;25.63;18.27;;;;;;;18.16;100.00;100243.69;4961684;28;20210;-74
2021/07/26 04:07:47;;;;;;;21.70;16.67;;;;;;;18.20;100.00;100243.50;4969869;28;20204;-75
2021/07/26 04:10:14;;;;;;;24.27;18.67;;;;;;;18.21;100.00;100237.31;4969877;28;20202;-75
2021/07/26 04:12:46;;;;;;;23.90;18.93;;;;;;;18.20;100.00;100240.88;4967532;28;20198;-73
2021/07/26 04:15:12;;;;;;;25.00;18.80;;;;;;;18.19;100.00;100240.03;4964958;28;20292;-74
2021/07/26 04:17:39;;;;;;;23.67;18.57;;;;;;;18.22;100.00;100237.16;4964882;28;20292;-74
2021/07/26 04:20:06;;;;;;;25.77;18.80;;;;;;;18.26;100.00;100243.13;4967633;28;20297;-74
2021/07/26 04:22:33;;;;;;;24.13;18.13;;;;;;;18.29;100.00;100237.63;4983060;28;20229;-74
2021/07/26 04:24:59;;;;;;;22.13;18.47;;;;;;;18.30;100.00;100237.53;4967314;28;20975;-74
2021/07/26 04:27:26;;;;;;;25.10;18.80;;;;;;;18.35;100.00;100239.88;4965481;28;20198;-74
2021/07/26 04:29:54;;;;;;;25.57;19.83;;;;;;;18.35;100.00;100238.09;4966815;28;20206;-74
2021/07/26 04:32:20;;;;;;;31.30;21.90;;;;;;;18.37;100.00;100240.63;4966063;28;20561;-74
2021/07/26 04:34:47;;;;;;;27.27;21.07;;;;;;;18.41;100.00;100250.03;4964446;28;20260;-74
2021/07/26 04:37:14;;;;;;;26.23;20.30;;;;;;;18.45;100.00;100246.28;4968222;28;20634;-74
2021/07/26 04:39:40;;;;;;;27.47;21.20;;;;;;;18.51;100.00;100237.94;4967122;28;20514;-74
2021/07/26 04:42:06;;;;;;;29.10;21.73;;;;;;;18.57;100.00;100231.41;4964504;28;20652;-74
2021/07/26 04:44:33;;;;;;;30.97;21.70;;;;;;;18.64;100.00;100239.78;4968516;28;20289;-74
2021/07/26 04:47:00;;;;;;;26.63;21.40;;;;;;;18.68;100.00;100238.59;4971132;28;20699;-74
2021/07/26 04:49:27;;;;;;;26.50;21.60;;;;;;;18.74;100.00;100233.78;4971299;28;20502;-74
2021/07/26 04:51:54;;;;;;;26.87;20.17;;;;;;;18.76;100.00;100231.03;4968976;28;20228;-73
2021/07/26 04:54:20;;;;;;;27.73;20.13;;;;;;;18.83;100.00;100236.78;4972404;28;20229;-73
2021/07/26 04:56:46;;;;;;;26.63;20.37;;;;;;;18.92;100.00;100244.94;4972671;28;20257;-74
2021/07/26 04:59:13;;;;;;;29.13;21.03;;;;;;;18.95;100.00;100245.69;4971836;28;20221;-74
2021/07/26 05:01:39;;;;;;;28.07;20.47;;;;;;;18.98;100.00;100230.50;4973394;28;20209;-74
2021/07/26 05:04:07;;;;;;;25.27;19.67;;;;;;;19.05;100.00;100229.13;4967877;28;20238;-73
2021/07/26 05:06:33;;;;;;;25.43;19.07;;;;;;;19.13;100.00;100238.31;4967971;28;20225;-73
2021/07/26 05:09:00;;;;;;;23.40;18.20;;;;;;;19.13;100.00;100228.59;4961491;28;20570;-73
2021/07/26 05:11:26;;;;;;;22.90;17.83;;;;;;;19.18;100.00;100231.75;4967310;28;20205;-73
2021/07/26 05:13:52;;;;;;;24.07;18.53;;;;;;;19.28;100.00;100237.28;4965061;28;20218;-73
2021/07/26 05:16:19;;;;;;;21.53;17.43;;;;;;;19.32;100.00;100245.84;4962643;28;20217;-73
2021/07/26 05:18:45;;;;;;;23.40;17.90;;;;;;;19.42;100.00;100238.97;4970168;28;20214;-73
2021/07/26 05:21:13;;;;;;;20.27;17.30;;;;;;;19.48;100.00;100234.06;4970258;28;20765;-73
2021/07/26 05:23:39;;;;;;;22.17;18.23;;;;;;;19.57;100.00;100231.75;4968778;28;20292;-73
2021/07/26 05:26:08;;;;;;;20.93;16.97;;;;;;;19.59;100.00;100241.25;4976536;28;20782;-73
2021/07/26 05:28:34;;;;;;;21.27;17.67;;;;;;;19.67;100.00;100246.88;4970233;28;20678;-75
2021/07/26 05:31:01;;;;;;;20.73;17.23;;;;;;;19.73;100.00;100260.63;4962613;28;20201;-75
2021/07/26 05:33:27;;;;;;;23.00;18.00;;;;;;;19.84;100.00;100258.94;4972285;28;20209;-75
2021/07/26 05:35:54;;;;;;;26.73;18.50;;;;;;;19.99;100.00;100258.81;4967841;28;20233;-75
2021/07/26 05:38:22;;;;;;;20.10;17.77;;;;;;;20.07;100.00;100256.47;4968514;28;20317;-74
2021/07/26 05:40:49;;;;;;;23.40;18.17;;;;;;;20.21;100.00;100245.72;4971716;28;20210;-72
2021/07/26 05:43:16;;;;;;;23.57;18.97;;;;;;;20.31;100.00;100247.69;4970611;28;20218;-75
2021/07/26 05:45:44;;;;;;;21.20;17.53;;;;;;;20.33;100.00;100249.25;4969715;28;20228;-74
2021/07/26 05:48:10;;;;;;;24.63;17.97;;;;;;;20.40;100.00;100257.59;4967595;28;20206;-74
2021/07/26 05:50:36;;;;;;;22.50;17.67;;;;;;;20.41;100.00;100256.66;4970562;28;20198;-75
2021/07/26 05:53:04;;;;;;;19.17;16.33;;;;;;;20.43;100.00;100257.38;4968507;28;20252;-74
2021/07/26 05:55:33;;;;;;;19.60;16.30;;;;;;;20.45;100.00;100252.81;4969413;28;20217;-75
2021/07/26 05:58:01;;;;;;;18.57;15.83;;;;;;;20.49;100.00;100251.66;4966652;28;20402;-75
2021/07/26 06:00:36;;;;;;;18.57;16.17;;;;;;;20.59;100.00;100252.63;4968621;28;20667;-75
2021/07/26 06:03:02;;;;;;;19.37;15.07;;;;;;;20.68;100.00;100253.78;4970478;28;20346;-75
2021/07/26 06:05:29;;;;;;;18.60;15.60;;;;;;;20.74;100.00;100253.34;4969508;28;20226;-75
2021/07/26 06:07:56;;;;;;;19.63;15.70;;;;;;;20.84;100.00;100256.13;4965049;28;20201;-74
2021/07/26 06:10:22;;;;;;;19.20;15.30;;;;;;;20.96;100.00;100260.50;4969262;28;20213;-73
2021/07/26 06:12:53;;;;;;;19.03;14.53;;;;;;;20.92;100.00;100264.38;4967420;28;20304;-74
2021/07/26 06:15:19;;;;;;;15.80;13.40;;;;;;;20.99;100.00;100262.09;4965653;28;20296;-73
2021/07/26 06:17:45;;;;;;;17.40;14.07;;;;;;;21.09;100.00;100270.19;4969429;28;20209;-73
2021/07/26 06:20:13;;;;;;;16.47;13.50;;;;;;;21.14;100.00;100276.00;4962645;28;20661;-73
2021/07/26 06:22:40;;;;;;;15.87;13.83;;;;;;;21.22;100.00;100276.25;4969816;28;20583;-74
2021/07/26 06:25:10;;;;;;;15.93;13.33;;;;;;;21.30;100.00;100288.91;4968695;28;20209;-73
2021/07/26 06:27:36;;;;;;;14.00;12.47;;;;;;;21.30;100.00;100289.78;4960370;28;20628;-74
2021/07/26 06:30:05;;;;;;;15.57;12.53;;;;;;;21.32;100.00;100292.31;4965301;28;20220;-73
2021/07/26 06:32:32;;;;;;;14.87;11.80;;;;;;;21.37;100.00;100291.00;4967273;28;20206;-73
2021/07/26 06:34:58;;;;;;;14.67;12.73;;;;;;;21.50;100.00;100287.44;4966657;28;20217;-74
2021/07/26 06:37:25;;;;;;;17.10;13.43;;;;;;;21.63;100.00;100285.50;4968280;28;20218;-73
2021/07/26 06:39:51;;;;;;;14.90;12.83;;;;;;;21.72;100.00;100287.47;4966856;28;20722;-74
2021/07/26 06:42:20;;;;;;;16.63;12.70;;;;;;;21.79;99.56;100294.91;4968000;28;20738;-75
2021/07/26 06:44:46;;;;;;;14.77;12.30;;;;;;;21.92;100.00;100290.34;4967608;28;20580;-73
2021/07/26 06:47:16;;;;;;;15.88;12.82;;;;;;;22.05;100.00;100287.56;4956486;28;20221;-74
2021/07/26 06:49:43;;;;;;;15.25;12.55;;;;;;;22.07;96.89;100296.22;4967055;28;20198;-73
2021/07/26 06:52:09;;;;;;;17.08;12.32;;;;;;;22.14;97.29;100294.78;4967666;28;20235;-73
2021/07/26 06:54:35;;;;;;;13.88;12.38;;;;;;;22.28;99.31;100291.03;4971204;28;20216;-73
2021/07/26 06:57:02;;;;;;;13.00;11.65;;;;;;;22.35;98.09;100294.06;4961932;28;20238;-73
2021/07/26 06:59:28;;;;;;;14.57;12.20;;;;;;;22.40;98.91;100289.22;4967054;28;20206;-73
2021/07/26 07:01:55;;;;;;;12.95;11.27;;;;;;;22.23;90.91;100301.16;4963103;28;20211;-73
2021/07/26 07:04:22;;;;;;;11.73;10.18;;;;;;;22.09;90.01;100296.94;4960609;28;20215;-73
2021/07/26 07:06:49;;;;;;;13.45;11.75;;;;;;;22.13;94.22;100288.63;4964176;28;20240;-74
2021/07/26 07:09:16;;;;;;;13.15;11.75;;;;;;;22.19;95.00;100286.44;4967761;28;20210;-72
2021/07/26 07:11:42;;;;;;;11.65;10.45;;;;;;;22.31;93.91;100296.13;4967484;28;20206;-73
2021/07/26 07:14:09;;;;;;;13.35;11.80;;;;;;;22.44;96.05;100299.47;4965493;28;20210;-73
2021/07/26 07:16:36;;;;;;;15.15;11.75;;;;;;;22.47;92.30;100307.19;4959713;28;20814;-73
2021/07/26 07:19:03;;;;;;;13.13;11.30;;;;;;;22.56;95.17;100297.63;4969454;28;20205;-73
2021/07/26 07:21:32;;;;;;;12.48;10.95;;;;;;;22.63;90.19;100300.63;4966993;28;20475;-74
2021/07/26 07:24:01;;;;;;;12.77;11.23;;;;;;;22.75;90.29;100304.09;4965698;28;20589;-74
2021/07/26 07:26:28;;;;;;;12.95;10.50;;;;;;;22.83;90.75;100289.19;4962754;28;20280;-74
2021/07/26 07:28:55;;;;;;;13.27;11.15;;;;;;;22.98;92.28;100291.53;4965295;28;20206;-74
2021/07/26 07:31:24;;;;;;;14.18;11.40;;;;;;;23.01;87.51;100292.13;4965404;28;20237;-73
2021/07/26 07:33:50;;;;;;;12.18;10.50;;;;;;;23.04;86.14;100296.34;4965891;28;20474;-75
2021/07/26 07:36:17;;;;;;;12.88;10.63;;;;;;;23.21;87.02;100300.28;4964760;28;20699;-74
2021/07/26 07:38:44;;;;;;;12.77;10.80;;;;;;;23.34;85.15;100308.03;4963084;28;20209;-75
2021/07/26 07:41:11;;;;;;;11.07;9.82;;;;;;;23.47;82.78;100310.53;4965015;28;20218;-75
2021/07/26 07:43:37;;;;;;;12.85;10.10;;;;;;;23.59;83.41;100304.16;4963454;28;20575;-73
2021/07/26 07:46:04;;;;;;;12.60;11.30;;;;;;;23.67;83.31;100295.50;4968398;28;20229;-73
2021/07/26 07:48:32;;;;;;;13.43;10.73;;;;;;;23.84;85.17;100297.56;4963956;28;20649;-73
2021/07/26 07:51:00;;;;;;;12.40;11.10;;;;;;;24.04;87.56;100301.13;4961313;28;20301;-73
2021/07/26 07:53:26;;;;;;;11.63;9.95;;;;;;;24.07;85.14;100308.03;4965880;28;20248;-73
2021/07/26 07:55:54;;;;;;;11.10;9.50;;;;;;;23.96;81.32;100309.81;4964363;28;20603;-73
2021/07/26 07:58:21;;;;;;;12.07;9.80;;;;;;;24.14;79.87;100311.84;4967890;28;20208;-73
2021/07/26 08:00:50;;;;;;;9.15;8.25;;;;;;;24.31;76.23;100318.31;4962454;28;20206;-73
2021/07/26 08:03:17;;;;;;;11.00;8.98;;;;;;;24.42;78.18;100304.06;4966287;28;20668;-73
2021/07/26 08:05:43;;;;;;;10.63;9.13;;;;;;;24.64;77.89;100310.97;4957850;28;20226;-73
2021/07/26 08:08:09;;;;;;;10.40;9.20;;;;;;;24.82;79.67;100308.44;4961938;28;20256;-74
2021/07/26 08:10:36;;;;;;;9.52;8.52;;;;;;;24.91;79.68;100308.47;4965681;28;20469;-74
2021/07/26 08:13:04;;;;;;;10.43;8.95;;;;;;;25.01;75.42;100321.81;4966178;28;20570;-75
2021/07/26 08:15:30;;;;;;;9.52;8.23;;;;;;;24.98;75.28;100323.88;4966287;28;20226;-74
2021/07/26 08:17:57;;;;;;;8.90;8.00;;;;;;;25.02;74.29;100334.16;4965283;28;20223;-74
2021/07/26 08:20:23;;;;;;;10.40;8.30;;;;;;;25.03;71.08;100333.19;4968866;28;20208;-74
2021/07/26 08:22:49;;;;;;;9.00;8.10;;;;;;;25.05;71.72;100333.03;4970937;28;20536;-73
2021/07/26 08:25:16;;;;;;;9.40;7.20;;;;;;;25.10;75.60;100326.28;4959549;28;20240;-73
2021/07/26 08:27:53;;;;;;;9.07;8.18;;;;;;;25.16;76.67;100332.88;4964911;28;20213;-73
2021/07/26 08:30:23;;;;;;;12.38;9.80;;;;;;;25.17;77.47;100334.56;4962250;28;20209;-73
2021/07/26 08:32:50;;;;;;;11.02;9.85;;;;;;;25.16;78.92;100330.22;4967855;28;20206;-74
2021/07/26 08:35:17;;;;;;;12.10;9.95;;;;;;;25.31;80.39;100328.81;4968148;28;20206;-74
2021/07/26 08:37:44;;;;;;;15.65;9.40;;;;;;;25.38;76.64;100326.44;4969990;28;20216;-74
2021/07/26 08:40:12;;;;;;;11.98;9.93;;;;;;;25.50;78.13;100327.94;4969902;28;20780;-74
2021/07/26 08:42:40;;;;;;;10.82;9.55;;;;;;;25.47;77.32;100332.72;4971156;28;20208;-74
2021/07/26 08:45:08;;;;;;;10.55;9.32;;;;;;;25.32;79.70;100329.66;4966567;28;20297;-74
2021/07/26 08:47:40;;;;;;;10.07;9.00;;;;;;;25.32;79.79;100327.00;4968054;28;20208;-74
2021/07/26 08:50:07;;;;;;;9.75;8.75;;;;;;;25.41;71.91;100344.81;4966633;28;20205;-74
2021/07/26 08:52:38;;;;;;;9.23;8.32;;;;;;;25.57;74.87;100341.53;4962756;28;20264;-74
2021/07/26 08:55:09;;;;;;;8.50;7.57;;;;;;;25.65;72.08;100347.00;4963503;28;20214;-75
2021/07/26 08:57:36;;;;;;;9.57;7.80;;;;;;;25.74;76.92;100334.63;4968413;28;20321;-74
2021/07/26 09:00:04;;;;;;;9.50;8.23;;;;;;;25.75;75.42;100338.97;4965916;28;20208;-75
2021/07/26 09:02:30;;;;;;;8.98;7.90;;;;;;;25.88;76.50;100330.63;4967597;28;20214;-73
2021/07/26 09:04:58;;;;;;;9.10;8.20;;;;;;;25.89;73.28;100345.66;4963251;28;20222;-74
2021/07/26 09:07:26;;;;;;;8.55;7.63;;;;;;;26.04;75.05;100343.41;4972127;28;20700;-74
2021/07/26 09:09:53;;;;;;;8.50;7.60;;;;;;;26.19;73.71;100347.25;4964976;28;20215;-73
2021/07/26 09:12:31;;;;;;;8.52;7.63;;;;;;;26.25;67.86;100354.66;4967368;28;20403;-75
2021/07/26 09:14:58;;;;;;;8.75;7.55;;;;;;;26.36;67.00;100355.47;4964329;28;20194;-74
2021/07/26 09:17:24;;;;;;;9.05;7.65;;;;;;;26.44;66.23;100347.56;4965192;28;20481;-75
2021/07/26 09:20:00;;;;;;;8.27;7.35;;;;;;;26.57;66.20;100349.84;4966515;28;20206;-74
2021/07/26 09:22:30;;;;;;;8.75;7.85;;;;;;;26.52;66.06;100352.13;4966201;28;20226;-74
2021/07/26 09:25:23;;;;;;;9.25;8.35;;;;;;;26.57;74.85;100337.31;4963278;28;20544;-74
2021/07/26 09:28:04;;;;;;;9.43;8.38;;;;;;;26.67;72.32;100344.50;4965020;28;20580;-74
2021/07/26 09:30:34;;;;;;;11.35;8.68;;;;;;;26.62;71.70;100344.94;4959040;28;20687;-74
2021/07/26 09:33:01;;;;;;;10.00;9.00;;;;;;;26.64;70.24;100342.94;4966391;28;20281;-74
2021/07/26 09:35:29;;;;;;;10.10;8.88;;;;;;;26.62;70.88;100343.09;4968919;28;20600;-74
2021/07/26 09:38:03;;;;;;;9.55;8.52;;;;;;;26.60;71.90;100339.69;4965274;28;20341;-74
2021/07/26 09:40:34;;;;;;;11.60;8.80;;;;;;;26.77;71.15;100337.22;4966644;28;20602;-74
2021/07/26 09:43:16;;;;;;;11.13;8.70;;;;;;;26.80;67.87;100345.78;4967684;28;20206;-74
2021/07/26 09:45:43;;;;;;;10.95;8.57;;;;;;;26.80;65.86;100348.44;4965585;28;20234;-74
2021/07/26 09:48:11;;;;;;;9.60;8.70;;;;;;;26.92;65.89;100343.72;4967364;28;20213;-74
2021/07/26 09:50:40;;;;;;;8.98;8.07;;;;;;;27.00;64.85;100351.00;4964789;28;20318;-74
2021/07/26 09:53:08;;;;;;;8.70;7.38;;;;;;;27.07;63.50;100345.84;4962746;28;20464;-74
2021/07/26 09:55:35;;;;;;;9.88;8.57;;;;;;;27.10;66.19;100341.03;4962695;28;20257;-74
2021/07/26 09:58:02;;;;;;;8.25;7.45;;;;;;;27.14;62.20;100346.91;4969162;28;20209;-74
2021/07/26 10:00:30;;;;;;;8.05;7.28;;;;;;;27.14;64.47;100345.09;4966147;28;20203;-74
2021/07/26 10:02:56;;;;;;;8.13;7.32;;;;;;;27.30;61.54;100357.78;4969353;28;20212;-74
2021/07/26 10:05:26;;;;;;;8.50;7.63;;;;;;;27.30;63.22;100357.78;4968058;28;20233;-74
2021/07/26 10:07:54;;;;;;;8.80;7.78;;;;;;;27.32;64.92;100353.13;4967626;28;20209;-74
2021/07/26 10:10:22;;;;;;;9.32;8.40;;;;;;;27.43;64.75;100341.31;4963031;28;20201;-74
2021/07/26 10:12:50;;;;;;;8.70;7.80;;;;;;;27.59;65.89;100343.25;4966501;28;20202;-74
2021/07/26 10:15:18;;;;;;;13.57;8.80;;;;;;;27.64;64.92;100349.00;4972236;28;20201;-74
2021/07/26 10:17:45;;;;;;;9.68;8.68;;;;;;;27.48;67.33;100341.69;4967382;28;20670;-74
2021/07/26 10:20:14;;;;;;;9.57;8.27;;;;;;;27.48;64.30;100346.22;4968542;28;20241;-74
2021/07/26 10:22:42;;;;;;;9.88;8.23;;;;;;;27.72;66.04;100340.16;4965942;28;20205;-74
2021/07/26 10:25:17;;;;;;;9.90;8.65;;;;;;;27.69;67.45;100343.16;4965405;28;20795;-74
2021/07/26 10:27:46;;;;;;;9.27;8.15;;;;;;;27.58;61.87;100350.47;4965875;28;20700;-74
2021/07/26 10:30:31;;;;;;;8.57;7.70;;;;;;;27.75;60.15;100351.38;4966519;28;20282;-74
2021/07/26 10:32:58;;;;;;;8.77;7.88;;;;;;;27.85;64.57;100345.09;4963899;28;20205;-74
2021/07/26 10:35:36;;;;;;;10.07;7.70;;;;;;;27.93;61.13;100339.78;4967062;28;20213;-74
2021/07/26 10:38:03;;;;;;;9.93;7.55;;;;;;;28.14;64.49;100328.66;4967224;28;20213;-74
2021/07/26 10:40:32;;;;;;;8.13;7.20;;;;;;;28.19;62.13;100330.88;4966233;28;20226;-74
2021/07/26 10:43:02;;;;;;;9.13;7.95;;;;;;;28.18;63.10;100324.69;4965874;28;20244;-74
2021/07/26 10:45:59;;;;;;;8.88;7.97;;;;;;;28.22;61.63;100327.88;4964560;28;20607;-74
2021/07/26 10:48:36;;;;;;;8.32;7.53;;;;;;;28.36;60.02;100329.94;4964320;28;20594;-74
2021/07/26 10:51:03;;;;;;;8.25;7.25;;;;;;;28.42;60.61;100329.25;4962298;28;20218;-74
2021/07/26 10:54:00;;;;;;;9.43;7.82;;;;;;;28.49;62.21;100324.91;4968067;28;20212;-74
2021/07/26 10:56:28;;;;;;;8.77;7.88;;;;;;;28.62;62.28;100315.59;4966327;28;20718;-74
2021/07/26 10:58:57;;;;;;;9.20;8.25;;;;;;;28.64;61.80;100317.13;4965750;28;20224;-75
2021/07/26 11:02:01;;;;;;;13.32;8.27;;;;;;;28.67;60.51;100316.78;4971135;28;20202;-75
2021/07/26 11:04:39;;;;;;;8.48;7.45;;;;;;;28.77;59.87;100313.94;4962915;28;20302;-75
2021/07/26 11:07:07;;;;;;;10.43;7.03;;;;;;;28.54;59.67;100319.09;4967649;28;20221;-72
2021/07/26 11:09:44;;;;;;;9.15;7.55;;;;;;;28.50;58.96;100315.88;4963777;28;20630;-72
2021/07/26 11:12:12;;;;;;;8.35;7.43;;;;;;;28.62;56.13;100320.94;4960176;28;20229;-75
2021/07/26 11:14:40;;;;;;;8.02;7.20;;;;;;;28.73;58.30;100317.13;4967898;28;20255;-73